createdAt,value
2023-03-29T00:01:10.173Z,3.80
2023-03-29T00:03:39.646Z,4.10
2023-03-29T00:06:08.545Z,4.03
2023-03-29T00:08:38.003Z,3.77
2023-03-29T00:11:07.682Z,4.10
2023-03-29T00:13:36.555Z,4.30
2023-03-29T00:16:05.130Z,4.13
2023-03-29T00:18:33.598Z,4.17
2023-03-29T00:21:02.732Z,3.87
2023-03-29T00:23:31.374Z,3.90
2023-03-29T00:26:00.259Z,3.43
2023-03-29T00:28:28.846Z,3.83
2023-03-29T00:31:16.145Z,3.93
2023-03-29T00:33:45.265Z,4.87
2023-03-29T00:36:14.753Z,4.00
2023-03-29T00:38:43.382Z,3.87
2023-03-29T00:44:52.832Z,3.67
2023-03-29T00:47:27.425Z,3.17
2023-03-29T00:50:00.279Z,3.57
2023-03-29T00:52:30.362Z,3.53
2023-03-29T00:55:01.595Z,4.03
2023-03-29T00:57:31.604Z,4.00
2023-03-29T01:00:00.810Z,3.20
2023-03-29T01:02:35.082Z,3.50
2023-03-29T01:05:11.797Z,3.60
2023-03-29T01:08:02.669Z,3.30
2023-03-29T01:11:03.011Z,3.50
2023-03-29T01:13:48.296Z,3.83
2023-03-29T01:16:20.312Z,3.63
2023-03-29T01:18:49.303Z,3.10
2023-03-29T01:21:34.241Z,3.40
2023-03-29T01:24:19.221Z,3.63
2023-03-29T01:27:15.755Z,3.30
2023-03-29T01:29:50.773Z,3.10
2023-03-29T01:32:48.060Z,3.47
2023-03-29T01:35:48.498Z,3.23
2023-03-29T01:38:18.720Z,3.17
2023-03-29T01:40:47.312Z,3.47
2023-03-29T01:43:19.845Z,3.77
2023-03-29T01:46:04.603Z,3.30
2023-03-29T01:48:51.901Z,4.00
2023-03-29T01:51:44.785Z,2.93
2023-03-29T01:54:30.027Z,2.97
2023-03-29T01:56:59.800Z,3.00
2023-03-29T01:59:33.225Z,2.97
2023-03-29T02:02:06.553Z,2.97
2023-03-29T02:04:39.885Z,3.00
2023-03-29T02:07:11.410Z,2.80
2023-03-29T02:09:42.077Z,2.80
2023-03-29T02:12:14.017Z,2.83
2023-03-29T02:14:42.713Z,2.47
2023-03-29T02:17:26.942Z,2.87
2023-03-29T02:20:14.478Z,2.87
2023-03-29T02:22:53.262Z,3.40
2023-03-29T02:25:22.562Z,3.40
2023-03-29T02:27:51.722Z,2.67
2023-03-29T02:30:21.905Z,2.90
2023-03-29T02:33:14.037Z,2.87
2023-03-29T02:36:11.570Z,2.90
2023-03-29T02:38:40.472Z,2.80
2023-03-29T02:41:10.778Z,3.00
2023-03-29T02:43:40.520Z,2.63
2023-03-29T02:46:09.480Z,2.70
2023-03-29T02:48:39.016Z,2.83
2023-03-29T02:51:18.011Z,2.63
2023-03-29T02:54:13.933Z,2.50
2023-03-29T02:57:01.822Z,2.60
2023-03-29T02:59:31.017Z,2.70
2023-03-29T03:01:59.560Z,2.40
2023-03-29T03:04:29.480Z,2.17
2023-03-29T03:06:58.075Z,3.20
2023-03-29T03:09:26.852Z,2.60
2023-03-29T03:11:55.481Z,2.43
2023-03-29T03:14:23.967Z,2.57
2023-03-29T03:16:52.878Z,2.47
2023-03-29T03:19:21.442Z,2.97
2023-03-29T03:21:51.033Z,2.97
2023-03-29T03:24:19.529Z,2.70
2023-03-29T03:26:48.012Z,2.40
2023-03-29T03:29:19.327Z,2.37
2023-03-29T03:31:53.923Z,2.27
2023-03-29T03:34:22.792Z,2.67
2023-03-29T03:36:51.529Z,3.00
2023-03-29T03:39:20.045Z,2.40
2023-03-29T03:41:48.601Z,2.50
2023-03-29T03:44:17.293Z,3.00
2023-03-29T03:46:45.879Z,2.60
2023-03-29T03:49:14.394Z,2.23
2023-03-29T03:51:45.446Z,2.67
2023-03-29T03:54:14.058Z,2.20
2023-03-29T03:56:43.530Z,2.50
2023-03-29T03:59:12.089Z,2.60
2023-03-29T04:01:43.476Z,2.20
2023-03-29T04:04:12.945Z,2.83
2023-03-29T04:06:43.797Z,2.60
2023-03-29T04:09:12.969Z,2.90
2023-03-29T04:11:41.430Z,2.83
2023-03-29T04:14:10.364Z,2.70
2023-03-29T04:16:38.845Z,2.70
2023-03-29T04:19:07.426Z,2.63
2023-03-29T04:21:35.905Z,2.40
2023-03-29T04:24:04.534Z,2.10
2023-03-29T04:26:33.106Z,2.40
2023-03-29T04:29:01.630Z,2.10
2023-03-29T04:31:30.141Z,2.20
2023-03-29T04:34:00.415Z,2.53
2023-03-29T04:36:29.123Z,2.37
2023-03-29T04:38:58.971Z,2.40
2023-03-29T04:41:27.440Z,2.50
2023-03-29T04:43:56.181Z,2.50
2023-03-29T04:46:26.572Z,2.17
2023-03-29T04:48:55.466Z,2.40
2023-03-29T04:51:24.485Z,3.20
2023-03-29T04:53:53.228Z,2.60
2023-03-29T04:56:23.115Z,2.37
2023-03-29T04:58:51.834Z,2.57
2023-03-29T05:01:23.643Z,2.90
2023-03-29T05:03:52.632Z,3.10
2023-03-29T05:06:23.887Z,2.87
2023-03-29T05:08:55.290Z,2.60
2023-03-29T05:11:25.421Z,3.47
2023-03-29T05:13:57.357Z,2.87
2023-03-29T05:16:26.445Z,2.57
2023-03-29T05:18:55.382Z,2.70
2023-03-29T05:21:24.061Z,2.40
2023-03-29T05:23:53.335Z,3.07
2023-03-29T05:26:25.591Z,2.60
2023-03-29T05:28:54.116Z,2.50
2023-03-29T05:31:22.894Z,2.40
2023-03-29T05:33:52.712Z,2.67
2023-03-29T05:36:21.462Z,2.83
2023-03-29T05:38:50.048Z,2.50
2023-03-29T05:41:19.081Z,2.93
2023-03-29T05:43:48.344Z,2.83
2023-03-29T05:46:16.827Z,2.73
2023-03-29T05:48:45.449Z,2.63
2023-03-29T05:51:14.031Z,3.13
2023-03-29T05:53:42.536Z,2.70
2023-03-29T05:56:11.657Z,2.67
2023-03-29T05:58:40.420Z,3.00
2023-03-29T06:01:15.408Z,3.13
2023-03-29T06:03:44.105Z,2.70
2023-03-29T06:06:15.198Z,2.97
2023-03-29T06:08:43.917Z,3.40
2023-03-29T06:11:14.416Z,2.60
2023-03-29T06:13:42.773Z,3.63
2023-03-29T06:16:13.544Z,3.33
2023-03-29T06:18:42.384Z,3.37
2023-03-29T06:21:10.887Z,3.27
2023-03-29T06:23:39.618Z,3.60
2023-03-29T06:26:08.156Z,3.63
2023-03-29T06:28:36.623Z,3.67
2023-03-29T06:31:06.062Z,3.27
2023-03-29T06:33:37.203Z,3.57
2023-03-29T06:36:05.930Z,3.47
2023-03-29T06:38:35.361Z,3.70
2023-03-29T06:41:08.977Z,6.57
2023-03-29T06:43:37.724Z,3.90
2023-03-29T06:46:08.831Z,4.33
2023-03-29T06:48:37.341Z,4.60
2023-03-29T06:51:07.634Z,4.50
2023-03-29T06:53:36.769Z,4.40
2023-03-29T06:56:09.504Z,4.17
2023-03-29T06:58:38.339Z,4.93
2023-03-29T07:01:07.225Z,4.83
2023-03-29T07:03:36.382Z,4.43
2023-03-29T07:06:10.118Z,4.63
2023-03-29T07:08:43.736Z,4.77
2023-03-29T07:11:18.737Z,4.40
2023-03-29T07:13:49.272Z,4.20
2023-03-29T07:16:17.580Z,4.73
2023-03-29T07:18:46.463Z,4.53
2023-03-29T07:21:15.177Z,4.60
2023-03-29T07:23:44.115Z,4.20
2023-03-29T07:26:12.288Z,4.63
2023-03-29T07:28:41.000Z,4.60
2023-03-29T07:31:13.464Z,4.90
2023-03-29T07:33:42.819Z,5.13
2023-03-29T07:36:11.713Z,4.33
2023-03-29T07:38:39.868Z,4.77
2023-03-29T07:41:09.116Z,5.00
2023-03-29T07:43:37.277Z,5.10
2023-03-29T07:46:07.265Z,4.77
2023-03-29T07:48:37.241Z,4.87
2023-03-29T07:51:06.332Z,5.60
2023-03-29T07:53:34.943Z,4.80
2023-03-29T07:56:03.111Z,4.77
2023-03-29T07:58:31.575Z,4.90
2023-03-29T08:01:01.462Z,5.07
2023-03-29T08:03:30.162Z,5.17
2023-03-29T08:05:58.696Z,4.73
2023-03-29T08:08:27.187Z,5.40
2023-03-29T08:10:56.349Z,4.80
2023-03-29T08:13:24.814Z,4.93
2023-03-29T08:15:53.330Z,4.67
2023-03-29T08:18:22.131Z,4.10
2023-03-29T08:20:52.720Z,5.40
2023-03-29T08:23:21.318Z,5.10
2023-03-29T08:25:49.773Z,4.77
2023-03-29T08:28:18.028Z,5.50
2023-03-29T08:30:46.598Z,5.03
2023-03-29T08:33:15.169Z,4.87
2023-03-29T08:35:43.404Z,5.37
2023-03-29T08:38:12.614Z,5.33
2023-03-29T08:40:41.451Z,5.07
2023-03-29T08:43:24.019Z,5.23
2023-03-29T08:45:52.506Z,5.20
2023-03-29T08:48:29.661Z,5.30
2023-03-29T08:51:09.830Z,5.13
2023-03-29T08:53:56.564Z,4.80
2023-03-29T08:56:28.557Z,4.70
2023-03-29T08:58:58.905Z,4.83
2023-03-29T09:01:35.031Z,4.53
2023-03-29T09:04:30.628Z,4.77
2023-03-29T09:06:59.483Z,4.93
2023-03-29T09:09:36.169Z,5.30
2023-03-29T09:12:27.822Z,5.13
2023-03-29T09:15:42.228Z,4.83
2023-03-29T09:18:20.334Z,4.77
2023-03-29T09:21:22.605Z,4.70
2023-03-29T09:24:10.168Z,5.03
2023-03-29T09:27:10.144Z,5.37
2023-03-29T09:30:14.498Z,4.80
2023-03-29T09:32:53.297Z,5.10
2023-03-29T09:35:34.694Z,5.30
2023-03-29T09:38:05.615Z,5.13
2023-03-29T09:40:57.830Z,4.73
2023-03-29T09:43:39.520Z,4.33
2023-03-29T09:46:32.235Z,5.27
2023-03-29T09:49:01.792Z,5.23
2023-03-29T09:51:32.315Z,4.57
2023-03-29T09:54:01.136Z,4.97
2023-03-29T09:56:30.088Z,4.50
2023-03-29T09:58:58.593Z,4.90
2023-03-29T10:01:38.885Z,4.73
2023-03-29T10:04:11.696Z,3.97
2023-03-29T10:06:47.517Z,4.13
2023-03-29T10:09:24.822Z,4.23
2023-03-29T10:12:02.355Z,4.37
2023-03-29T10:14:46.494Z,3.80
2023-03-29T10:17:25.477Z,4.27
2023-03-29T10:20:04.535Z,4.37
2023-03-29T10:22:40.561Z,3.90
2023-03-29T10:25:18.282Z,4.03
2023-03-29T10:27:48.862Z,4.40
2023-03-29T10:30:24.537Z,4.20
2023-03-29T10:33:00.539Z,3.97
2023-03-29T10:35:41.655Z,5.03
2023-03-29T10:38:23.792Z,4.33
2023-03-29T10:40:54.012Z,3.77
2023-03-29T10:43:37.203Z,3.70
2023-03-29T10:46:31.481Z,4.13
2023-03-29T10:49:06.163Z,4.10
2023-03-29T10:51:34.692Z,4.00
2023-03-29T10:54:05.406Z,3.70
2023-03-29T10:56:41.699Z,4.17
2023-03-29T10:59:58.579Z,3.17
2023-03-29T11:02:45.332Z,4.13
2023-03-29T11:05:35.315Z,3.10
2023-03-29T11:08:33.787Z,3.60
2023-03-29T11:11:20.464Z,4.23
2023-03-29T11:14:31.327Z,3.47
2023-03-29T11:17:22.836Z,4.30
2023-03-29T11:20:26.364Z,3.80
2023-03-29T11:23:34.987Z,3.40
2023-03-29T11:26:14.588Z,3.90
2023-03-29T11:29:11.032Z,3.80
2023-03-29T11:32:01.040Z,3.90
2023-03-29T11:34:59.572Z,3.63
2023-03-29T11:38:15.142Z,3.27
2023-03-29T11:40:52.400Z,3.67
2023-03-29T11:43:26.653Z,3.70
2023-03-29T11:46:05.200Z,3.20
2023-03-29T11:48:41.331Z,3.20
2023-03-29T11:51:23.540Z,3.97
2023-03-29T11:54:09.378Z,3.37
2023-03-29T11:57:02.097Z,2.77
2023-03-29T11:59:36.621Z,4.20
2023-03-29T12:03:00.925Z,3.00
2023-03-29T12:06:05.614Z,3.20
2023-03-29T12:08:40.823Z,3.03
2023-03-29T12:11:31.451Z,2.97
2023-03-29T12:14:28.209Z,3.43
2023-03-29T12:17:04.329Z,3.23
2023-03-29T12:20:01.371Z,3.07
2023-03-29T12:22:29.983Z,3.20
2023-03-29T12:24:58.988Z,3.20
2023-03-29T12:27:40.595Z,3.50
2023-03-29T12:30:42.093Z,3.20
2023-03-29T12:33:34.518Z,2.60
2023-03-29T12:36:19.079Z,3.33
2023-03-29T12:38:48.249Z,3.13
2023-03-29T12:41:24.999Z,3.07
2023-03-29T12:43:53.554Z,3.70
2023-03-29T12:46:27.089Z,3.77
2023-03-29T12:48:59.356Z,3.20
2023-03-29T12:51:36.071Z,3.00
2023-03-29T12:54:11.672Z,2.83
2023-03-29T12:57:02.961Z,2.80
2023-03-29T12:59:45.147Z,3.10
2023-03-29T13:02:17.883Z,2.90
2023-03-29T13:04:56.102Z,2.43
2023-03-29T13:07:26.463Z,2.63
2023-03-29T13:10:02.987Z,2.80
2023-03-29T13:12:42.652Z,2.97
2023-03-29T13:15:17.051Z,2.67
2023-03-29T13:17:57.500Z,2.70
2023-03-29T13:20:55.980Z,3.40
2023-03-29T13:23:42.029Z,2.90
2023-03-29T13:27:16.593Z,2.97
2023-03-29T13:30:04.509Z,2.80
2023-03-29T13:33:10.761Z,2.70
2023-03-29T13:36:07.128Z,2.30
2023-03-29T13:38:48.771Z,2.47
2023-03-29T13:41:39.305Z,2.67
2023-03-29T13:44:46.267Z,2.90
2023-03-29T13:47:39.056Z,2.60
2023-03-29T13:50:19.084Z,2.60
2023-03-29T13:53:07.673Z,2.60
2023-03-29T13:55:49.673Z,2.63
2023-03-29T13:58:46.549Z,2.83
2023-03-29T14:01:45.467Z,2.27
2023-03-29T14:04:25.028Z,2.17
2023-03-29T14:06:56.834Z,2.83
2023-03-29T14:09:33.635Z,2.33
2023-03-29T14:12:02.917Z,3.17
2023-03-29T14:14:32.915Z,2.83
2023-03-29T14:17:02.757Z,2.70
2023-03-29T14:19:38.089Z,2.40
2023-03-29T14:22:15.684Z,2.97
2023-03-29T14:24:58.383Z,2.43
2023-03-29T14:27:27.222Z,2.83
2023-03-29T14:29:55.905Z,2.80
2023-03-29T14:32:31.904Z,2.40
2023-03-29T14:35:02.733Z,2.30
2023-03-29T14:37:31.647Z,2.33
2023-03-29T14:40:00.702Z,2.33
2023-03-29T14:42:30.479Z,2.13
2023-03-29T14:45:04.809Z,2.57
2023-03-29T14:47:34.750Z,2.17
2023-03-29T14:50:04.012Z,2.83
2023-03-29T14:52:33.514Z,3.23
2023-03-29T14:55:04.201Z,2.60
2023-03-29T14:57:38.041Z,3.00
2023-03-29T15:00:26.583Z,2.43
2023-03-29T15:03:03.630Z,2.47
2023-03-29T15:06:04.407Z,2.90
2023-03-29T15:08:38.973Z,2.47
2023-03-29T15:11:34.062Z,2.67
2023-03-29T15:14:17.973Z,2.60
2023-03-29T15:16:48.303Z,2.10
2023-03-29T15:19:21.709Z,2.27
2023-03-29T15:21:53.085Z,2.37
2023-03-29T15:24:33.993Z,2.00
2023-03-29T15:27:16.042Z,2.03
2023-03-29T15:29:47.427Z,1.80
2023-03-29T15:32:34.109Z,2.00
2023-03-29T15:35:07.934Z,2.13
2023-03-29T15:37:36.745Z,1.70
2023-03-29T15:40:09.666Z,2.27
2023-03-29T15:42:38.381Z,2.50
2023-03-29T15:45:07.440Z,2.20
2023-03-29T15:47:35.645Z,2.40
2023-03-29T15:50:04.214Z,1.83
2023-03-29T15:52:32.929Z,1.77
2023-03-29T15:55:01.538Z,2.03
2023-03-29T15:57:30.447Z,1.90
2023-03-29T15:59:59.533Z,1.60
2023-03-29T16:02:28.074Z,2.10
2023-03-29T16:04:56.624Z,1.97
2023-03-29T16:07:25.384Z,1.70
2023-03-29T16:09:53.852Z,2.07
2023-03-29T16:12:23.013Z,1.80
2023-03-29T16:14:51.529Z,2.07
2023-03-29T16:17:20.026Z,1.70
2023-03-29T16:19:48.211Z,2.10
2023-03-29T16:22:16.827Z,2.23
2023-03-29T16:24:44.897Z,2.40
2023-03-29T16:27:13.829Z,2.17
2023-03-29T16:29:42.293Z,2.43
2023-03-29T16:32:11.783Z,2.20
2023-03-29T16:34:41.502Z,2.30
2023-03-29T16:37:10.124Z,2.03
2023-03-29T16:39:38.685Z,2.20
2023-03-29T16:42:07.200Z,2.60
2023-03-29T16:44:35.756Z,2.30
2023-03-29T16:47:04.386Z,2.43
2023-03-29T16:49:32.914Z,2.40
2023-03-29T16:52:01.437Z,2.40
2023-03-29T16:54:31.755Z,2.37
2023-03-29T16:57:00.360Z,2.60
2023-03-29T16:59:28.871Z,2.40
2023-03-29T17:01:57.459Z,2.53
2023-03-29T17:04:25.642Z,2.30
2023-03-29T17:06:54.254Z,2.60
2023-03-29T17:09:22.556Z,2.90
2023-03-29T17:11:51.250Z,3.00
2023-03-29T17:14:19.762Z,2.70
2023-03-29T17:16:48.345Z,3.00
2023-03-29T17:19:16.522Z,3.00
2023-03-29T17:21:45.286Z,2.63
2023-03-29T17:24:13.780Z,2.90
2023-03-29T17:26:44.549Z,2.73
2023-03-29T17:29:13.993Z,3.23
2023-03-29T17:31:47.652Z,3.23
2023-03-29T17:34:17.557Z,3.50
2023-03-29T17:36:47.271Z,2.90
2023-03-29T17:39:18.852Z,2.80
2023-03-29T17:41:48.654Z,3.67
2023-03-29T17:44:17.080Z,4.53
2023-03-29T17:46:45.812Z,4.67
2023-03-29T17:49:15.876Z,5.03
2023-03-29T17:51:44.340Z,5.07
2023-03-29T17:54:12.814Z,5.30
2023-03-29T17:56:41.446Z,5.77
2023-03-29T17:59:11.213Z,5.50
2023-03-29T18:01:39.664Z,6.00
2023-03-29T18:04:08.496Z,6.03
2023-03-29T18:06:37.215Z,6.00
2023-03-29T18:09:06.230Z,5.30
2023-03-29T18:11:36.389Z,4.90
2023-03-29T18:14:05.356Z,4.47
2023-03-29T18:16:34.034Z,4.23
2023-03-29T18:19:02.270Z,4.70
2023-03-29T18:21:30.920Z,4.10
2023-03-29T18:23:59.403Z,5.53
2023-03-29T18:26:29.010Z,5.30
2023-03-29T18:28:57.199Z,5.10
2023-03-29T18:31:26.064Z,5.27
2023-03-29T18:33:54.753Z,4.83
2023-03-29T18:36:25.305Z,4.37
2023-03-29T18:38:55.803Z,4.87
2023-03-29T18:41:25.000Z,4.60
2023-03-29T18:43:57.214Z,4.03
2023-03-29T18:46:25.945Z,4.47
2023-03-29T18:48:54.520Z,4.20
2023-03-29T18:51:23.437Z,3.60
2023-03-29T18:53:52.040Z,4.10
2023-03-29T18:56:20.586Z,4.30
2023-03-29T18:58:49.281Z,3.80
2023-03-29T19:01:23.628Z,3.30
2023-03-29T19:03:52.439Z,3.03
2023-03-29T19:06:21.009Z,3.30
2023-03-29T19:08:49.617Z,3.20
2023-03-29T19:11:18.098Z,2.97
2023-03-29T19:13:50.230Z,2.87
2023-03-29T19:16:19.212Z,2.30
2023-03-29T19:18:47.896Z,2.73
2023-03-29T19:21:16.450Z,2.47
2023-03-29T19:23:44.988Z,2.63
2023-03-29T19:26:15.362Z,2.37
2023-03-29T19:28:44.072Z,2.20
2023-03-29T19:31:12.714Z,2.23
2023-03-29T19:33:41.612Z,2.47
2023-03-29T19:36:10.194Z,2.40
2023-03-29T19:38:38.796Z,2.20
2023-03-29T19:41:09.041Z,2.37
2023-03-29T19:43:37.575Z,2.40
2023-03-29T19:46:11.694Z,2.77
2023-03-29T19:48:41.460Z,2.47
2023-03-29T19:51:10.029Z,3.13
2023-03-29T19:53:39.165Z,3.13
2023-03-29T19:56:10.993Z,2.90
2023-03-29T19:58:39.703Z,2.80
2023-03-29T20:01:08.200Z,3.07
2023-03-29T20:03:36.799Z,3.10
2023-03-29T20:06:05.861Z,3.67
2023-03-29T20:08:36.351Z,3.33
2023-03-29T20:11:06.634Z,3.30
2023-03-29T20:13:38.905Z,2.97
2023-03-29T20:16:13.773Z,3.17
2023-03-29T20:18:44.589Z,3.33
2023-03-29T20:21:18.762Z,3.33
2023-03-29T20:23:47.389Z,3.13
2023-03-29T20:26:15.953Z,2.93
2023-03-29T20:28:44.423Z,2.70
2023-03-29T20:31:13.173Z,3.40
2023-03-29T20:33:44.397Z,3.00
2023-03-29T20:36:13.609Z,2.80
2023-03-29T20:38:42.245Z,2.70
2023-03-29T20:41:10.958Z,3.40
2023-03-29T20:43:41.217Z,3.30
2023-03-29T20:46:14.771Z,3.50
2023-03-29T20:48:46.159Z,2.93
2023-03-29T20:51:15.232Z,3.50
2023-03-29T20:53:43.663Z,3.03
2023-03-29T20:56:13.142Z,3.10
2023-03-29T20:58:44.016Z,2.90
2023-03-29T21:01:14.289Z,3.13
2023-03-29T21:03:43.486Z,3.17
2023-03-29T21:06:14.111Z,3.07
2023-03-29T21:08:43.560Z,3.53
2023-03-29T21:11:14.183Z,3.50
2023-03-29T21:13:43.452Z,3.70
2023-03-29T21:16:13.065Z,3.33
2023-03-29T21:18:43.385Z,3.33
2023-03-29T21:21:14.684Z,3.30
2023-03-29T21:23:42.733Z,3.43
2023-03-29T21:26:11.791Z,3.27
2023-03-29T21:28:41.204Z,3.03
2023-03-29T21:31:10.237Z,3.03
2023-03-29T21:33:38.897Z,2.70
2023-03-29T21:36:08.288Z,2.90
2023-03-29T21:38:36.835Z,2.93
2023-03-29T21:41:06.857Z,2.80
2023-03-29T21:43:35.358Z,3.03
2023-03-29T21:46:03.808Z,2.90
2023-03-29T21:48:33.198Z,2.67
2023-03-29T21:51:01.753Z,3.00
2023-03-29T21:53:30.529Z,2.80
2023-03-29T21:55:59.130Z,2.93
2023-03-29T21:58:27.705Z,3.00
2023-03-29T22:00:57.142Z,3.20
2023-03-29T22:03:25.877Z,3.00
2023-03-29T22:06:03.082Z,2.93
2023-03-29T22:08:32.648Z,2.83
2023-03-29T22:11:08.955Z,2.57
2023-03-29T22:13:38.070Z,2.97
2023-03-29T22:16:07.828Z,2.93
2023-03-29T22:18:43.605Z,2.57
2023-03-29T22:21:31.160Z,3.00
2023-03-29T22:24:02.379Z,2.83
2023-03-29T22:26:33.563Z,2.70
2023-03-29T22:29:02.774Z,2.50
2023-03-29T22:31:33.257Z,2.90
2023-03-29T22:34:02.999Z,3.20
2023-03-29T22:36:33.149Z,2.67
2023-03-29T22:39:01.561Z,2.83
2023-03-29T22:41:30.181Z,2.80
2023-03-29T22:44:01.098Z,2.73
2023-03-29T22:46:29.747Z,3.00
2023-03-29T22:48:58.386Z,3.73
2023-03-29T22:51:27.293Z,2.67
2023-03-29T22:53:56.256Z,2.87
2023-03-29T22:56:24.849Z,2.90
2023-03-29T22:58:53.641Z,2.80
2023-03-29T23:01:22.192Z,2.80
2023-03-29T23:03:51.029Z,2.77
2023-03-29T23:06:19.055Z,2.73
2023-03-29T23:08:47.445Z,3.50
2023-03-29T23:11:15.943Z,3.30
2023-03-29T23:13:48.648Z,3.20
2023-03-29T23:16:17.476Z,3.63
2023-03-29T23:18:45.600Z,3.03
2023-03-29T23:21:15.266Z,3.37
2023-03-29T23:23:44.751Z,3.33
2023-03-29T23:26:13.462Z,3.30
2023-03-29T23:28:42.344Z,3.10
2023-03-29T23:31:14.148Z,3.00
2023-03-29T23:33:43.728Z,3.60
2023-03-29T23:36:18.882Z,3.23
2023-03-29T23:38:48.016Z,3.30
2023-03-29T23:41:17.742Z,3.03
2023-03-29T23:43:47.136Z,3.33
2023-03-29T23:46:18.850Z,3.00
2023-03-29T23:48:49.364Z,3.10
2023-03-29T23:51:22.904Z,3.27
2023-03-29T23:53:51.760Z,3.30
2023-03-29T23:56:21.766Z,2.77
2023-03-29T23:58:50.445Z,3.37
